Time;durP1;ratioP1;P1;durP2;ratioP2;P2;SDS_P1;SDS_P2;PMS_P1;PMS_P2;Temp;Humidity;BMP_temperature;BMP_pressure;BME280_temperature;BME280_humidity;BME280_pressure;Samples;Min_cycle;Max_cycle;Signal;HPM_P1;HPM_P2
2022/04/05 00:01:43;;;;;;;1999.90;999.90;;;;;;;1.36;57.12;99576.63;4914705;28;99868;-74
2022/04/05 00:04:11;;;;;;;1999.90;999.90;;;;;;;1.39;56.63;99572.41;4910181;28;99325;-74
2022/04/05 00:06:39;;;;;;;1999.90;999.90;;;;;;;1.40;57.10;99571.53;4918295;28;98044;-73
2022/04/05 00:09:07;;;;;;;1999.90;999.90;;;;;;;1.26;63.08;99572.75;4912655;28;99218;-74
2022/04/05 00:11:36;;;;;;;1999.90;999.90;;;;;;;1.27;60.35;99576.28;4910291;28;100674;-73
2022/04/05 00:14:04;;;;;;;1999.90;999.90;;;;;;;1.33;57.31;99577.38;4920676;28;96997;-74
2022/04/05 00:16:31;;;;;;;1999.90;999.90;;;;;;;1.31;58.06;99568.56;4912109;28;97979;-74
2022/04/05 00:18:59;;;;;;;1999.90;999.90;;;;;;;1.32;58.12;99575.63;4920566;28;97532;-72
2022/04/05 00:21:27;;;;;;;1999.90;999.90;;;;;;;1.30;57.85;99572.03;4916626;28;99443;-73
2022/04/05 00:23:54;;;;;;;1999.90;999.90;;;;;;;1.30;57.94;99579.91;4921259;28;97689;-73
2022/04/05 00:26:22;;;;;;;1999.90;999.90;;;;;;;1.30;57.25;99571.13;4921745;28;97118;-73
2022/04/05 00:28:51;;;;;;;1999.90;999.90;;;;;;;1.29;58.77;99569.38;4921231;28;98779;-73
2022/04/05 00:31:18;;;;;;;1999.90;999.90;;;;;;;1.27;58.81;99587.63;4921531;28;97570;-73
2022/04/05 00:33:46;;;;;;;1999.90;999.90;;;;;;;1.28;57.65;99571.09;4920708;28;97448;-74
2022/04/05 00:36:14;;;;;;;1999.90;999.90;;;;;;;1.25;58.67;99568.38;4921116;28;97065;-73
2022/04/05 00:38:42;;;;;;;1999.90;999.90;;;;;;;1.25;57.93;99594.56;4935405;28;97664;-73
2022/04/05 00:41:09;;;;;;;1999.90;999.90;;;;;;;1.27;58.26;99571.03;4921553;28;97573;-73
2022/04/05 00:43:37;;;;;;;1999.90;999.90;;;;;;;1.24;59.47;99574.41;4921890;28;97458;-74
2022/04/05 00:46:06;;;;;;;1999.90;999.90;;;;;;;1.27;57.90;99574.53;4919966;28;98423;-73
2022/04/05 00:48:47;;;;;;;1999.90;999.90;;;;;;;1.31;58.45;99562.44;4920953;28;100289;-74
2022/04/05 00:51:16;;;;;;;1999.90;999.90;;;;;;;1.30;58.57;99577.28;4919134;28;97913;-73
2022/04/05 00:53:45;;;;;;;1999.90;999.90;;;;;;;1.32;57.59;99566.84;4919492;28;100898;-73
2022/04/05 00:56:14;;;;;;;1999.90;999.90;;;;;;;1.33;57.69;99580.00;4917342;28;96982;-74
2022/04/05 00:58:43;;;;;;;1999.90;999.90;;;;;;;1.30;58.23;99574.66;4919641;28;99146;-74
2022/04/05 01:01:15;;;;;;;1999.90;999.90;;;;;;;1.28;58.48;99573.72;4916898;28;97812;-73
2022/04/05 01:03:48;;;;;;;1999.90;999.90;;;;;;;1.31;57.26;99572.91;4918650;28;97260;-72
2022/04/05 01:06:17;;;;;;;1999.90;999.90;;;;;;;1.30;57.87;99569.41;4919126;28;98527;-73
2022/04/05 01:08:45;;;;;;;1999.90;999.90;;;;;;;1.30;58.66;99566.81;4919016;28;98270;-73
2022/04/05 01:11:13;;;;;;;1999.90;999.90;;;;;;;1.29;58.00;99570.25;4915026;28;97854;-74
2022/04/05 01:13:41;;;;;;;1999.90;999.90;;;;;;;1.29;57.97;99572.00;4919121;28;96964;-73
2022/04/05 01:16:11;;;;;;;1999.90;999.90;;;;;;;1.28;58.07;99568.47;4918780;28;97126;-73
2022/04/05 01:18:40;;;;;;;1999.90;999.90;;;;;;;1.32;57.75;99573.00;4918318;28;100572;-73
2022/04/05 01:21:08;;;;;;;1999.90;999.90;;;;;;;1.34;57.71;99573.94;4916067;28;99861;-74
2022/04/05 01:23:35;;;;;;;1999.90;999.90;;;;;;;1.31;58.48;99571.19;4916932;28;99372;-74
2022/04/05 01:26:04;;;;;;;1999.90;999.90;;;;;;;1.33;58.38;99566.00;4912598;28;97000;-73
2022/04/05 01:28:32;;;;;;;1999.90;999.90;;;;;;;1.35;57.59;99570.47;4919236;28;100806;-73
2022/04/05 01:31:00;;;;;;;1999.90;999.90;;;;;;;1.37;57.83;99560.97;4903011;28;100288;-73
2022/04/05 01:33:27;;;;;;;1999.90;999.90;;;;;;;1.35;57.81;99570.47;4917883;28;97607;-73
2022/04/05 01:35:55;;;;;;;1999.90;999.90;;;;;;;1.35;57.82;99559.09;4920462;28;97985;-73
2022/04/05 01:38:23;;;;;;;1999.90;999.90;;;;;;;1.36;57.49;99566.16;4919278;28;99320;-73
2022/04/05 01:40:51;;;;;;;1999.90;999.90;;;;;;;1.29;59.06;99569.38;4915869;28;100376;-74
2022/04/05 01:43:20;;;;;;;1999.90;999.90;;;;;;;1.27;58.92;99576.28;4917417;28;96826;-73
2022/04/05 01:45:48;;;;;;;1999.90;999.90;;;;;;;1.25;58.86;99562.22;4919905;28;96947;-73
2022/04/05 01:48:16;;;;;;;1999.90;999.90;;;;;;;1.23;58.53;99567.41;4917768;28;97733;-72
2022/04/05 01:50:44;;;;;;;1999.90;999.90;;;;;;;1.21;59.26;99588.28;4920068;28;98844;-74
2022/04/05 01:53:12;;;;;;;1999.90;999.90;;;;;;;1.25;58.24;99567.47;4919238;28;97688;-74
2022/04/05 01:55:39;;;;;;;1999.90;999.90;;;;;;;1.19;58.59;99569.03;4919042;28;97123;-73
2022/04/05 01:58:07;;;;;;;1999.90;999.90;;;;;;;1.21;58.88;99576.94;4914993;28;97920;-73
2022/04/05 02:00:36;;;;;;;1999.90;999.90;;;;;;;1.20;57.85;99562.03;4902806;28;101014;-74
2022/04/05 02:03:04;;;;;;;1999.90;999.90;;;;;;;1.21;57.78;99563.81;4917607;28;97557;-74
2022/04/05 02:05:32;;;;;;;1999.90;999.90;;;;;;;1.20;58.18;99577.75;4916021;28;97187;-74
2022/04/05 02:07:59;;;;;;;1999.90;999.90;;;;;;;1.15;59.25;99574.06;4919095;28;98177;-73
2022/04/05 02:10:27;;;;;;;1999.90;999.90;;;;;;;1.14;59.30;99569.66;4917772;28;98720;-74
2022/04/05 02:12:56;;;;;;;1999.90;999.90;;;;;;;1.16;58.64;99568.88;4917870;28;97284;-73
2022/04/05 02:15:46;;;;;;;1999.90;999.90;;;;;;;1.16;58.18;99567.97;4919674;28;96900;-74
2022/04/05 02:18:14;;;;;;;1999.90;999.90;;;;;;;1.19;58.40;99573.34;4934209;28;98719;-74
2022/04/05 02:20:44;;;;;;;1999.90;999.90;;;;;;;1.19;58.73;99565.50;4904595;28;99322;-74
2022/04/05 02:23:15;;;;;;;1999.90;999.90;;;;;;;1.18;58.81;99561.97;4917513;28;97010;-74
2022/04/05 02:25:52;;;;;;;1999.90;999.90;;;;;;;1.15;59.50;99566.19;4921010;28;96907;-74
2022/04/05 02:28:24;;;;;;;1999.90;999.90;;;;;;;1.17;58.95;99573.31;4910002;28;98531;-74
2022/04/05 02:30:56;;;;;;;1999.90;999.90;;;;;;;1.19;58.58;99571.63;4906252;28;99282;-74
2022/04/05 02:33:31;;;;;;;1999.90;999.90;;;;;;;1.18;58.80;99580.31;4921198;28;97753;-74
2022/04/05 02:36:04;;;;;;;1999.90;999.90;;;;;;;1.21;58.59;99582.16;4938845;28;96875;-73
2022/04/05 02:38:32;;;;;;;1999.90;999.90;;;;;;;1.18;59.42;99596.03;4903690;28;99618;-73
2022/04/05 02:41:01;;;;;;;1999.90;999.90;;;;;;;1.17;58.64;99569.78;4922252;28;98811;-74
2022/04/05 02:43:30;;;;;;;1999.90;999.90;;;;;;;1.17;58.82;99572.41;4920691;28;96900;-74
2022/04/05 02:45:59;;;;;;;1999.90;999.90;;;;;;;1.19;59.00;99562.88;4920957;28;97185;-74
2022/04/05 02:48:29;;;;;;;1999.90;999.90;;;;;;;1.20;58.20;99578.66;4904449;28;98583;-74
2022/04/05 02:50:56;;;;;;;1999.90;999.90;;;;;;;1.19;58.48;99581.22;4921217;28;98873;-74
2022/04/05 02:53:24;;;;;;;1999.90;999.90;;;;;;;1.18;58.80;99592.50;4921747;28;97699;-74
2022/04/05 02:55:53;;;;;;;1999.90;999.90;;;;;;;1.14;59.75;99588.00;4894381;28;97463;-74
2022/04/05 02:58:21;;;;;;;1999.90;999.90;;;;;;;1.19;58.53;99583.84;4918894;28;96971;-73
2022/04/05 03:00:50;;;;;;;1999.90;999.90;;;;;;;1.14;62.32;99595.88;4922884;28;100169;-72
2022/04/05 03:03:19;;;;;;;1999.90;999.90;;;;;;;1.13;62.84;99594.06;4902137;28;99253;-74
2022/04/05 03:05:52;;;;;;;1999.90;999.90;;;;;;;1.11;63.27;99590.47;4904933;28;97101;-75
2022/04/05 03:08:22;;;;;;;1999.90;999.90;;;;;;;1.12;62.62;99606.25;4938668;28;99723;-74
2022/04/05 03:10:50;;;;;;;1999.90;999.90;;;;;;;1.12;62.64;99590.53;4904612;28;102254;-75
2022/04/05 03:13:19;;;;;;;1999.90;999.90;;;;;;;1.23;62.34;99596.22;4916746;28;98959;-75
2022/04/05 03:15:47;;;;;;;1999.90;999.90;;;;;;;1.28;61.85;99601.63;4916291;28;96880;-75
2022/04/05 03:18:16;;;;;;;1999.90;999.90;;;;;;;1.14;62.44;99606.34;4922276;28;97725;-75
2022/04/05 03:20:45;;;;;;;1999.90;999.90;;;;;;;1.15;61.92;99608.13;4922606;28;99352;-74
2022/04/05 03:23:13;;;;;;;1999.90;999.90;;;;;;;1.14;62.16;99617.69;4920073;28;98274;-72
2022/04/05 03:25:41;;;;;;;1999.90;999.90;;;;;;;1.13;62.24;99615.91;4923356;28;96865;-75
2022/04/05 03:28:09;;;;;;;1999.90;999.90;;;;;;;1.15;61.40;99615.97;4920794;28;99506;-75
2022/04/05 03:30:37;;;;;;;1999.90;999.90;;;;;;;1.16;61.07;99609.88;4919310;28;101061;-71
2022/04/05 03:33:06;;;;;;;1999.90;999.90;;;;;;;1.16;60.30;99615.13;4920384;28;97290;-71
2022/04/05 03:35:35;;;;;;;1999.90;999.90;;;;;;;1.18;60.22;99608.22;4935839;28;97250;-74
2022/04/05 03:38:05;;;;;;;1999.90;999.90;;;;;;;1.17;59.56;99622.16;4922482;28;98696;-71
2022/04/05 03:40:33;;;;;;;1999.90;999.90;;;;;;;1.10;63.38;99615.78;4910899;28;98998;-74
2022/04/05 03:43:03;;;;;;;1999.90;999.90;;;;;;;1.15;60.99;99621.22;4903368;28;97458;-73
2022/04/05 03:45:31;;;;;;;1999.90;999.90;;;;;;;1.16;59.03;99615.13;4922382;28;97249;-72
2022/04/05 03:48:00;;;;;;;1999.90;999.90;;;;;;;1.15;60.25;99613.34;4934905;28;98471;-74
2022/04/05 03:50:31;;;;;;;1999.90;999.90;;;;;;;1.14;60.05;99615.06;4937270;28;98715;-73
2022/04/05 03:53:01;;;;;;;1999.90;999.90;;;;;;;1.16;58.78;99620.38;4921547;28;97589;-73
2022/04/05 03:55:33;;;;;;;1999.90;999.90;;;;;;;1.16;59.46;99620.38;4909328;28;97236;-73
2022/04/05 03:58:04;;;;;;;1999.90;999.90;;;;;;;1.18;58.69;99623.94;4919198;28;98203;-72
2022/04/05 04:00:33;;;;;;;1999.90;999.90;;;;;;;1.21;58.63;99624.09;4912650;28;97821;-73
2022/04/05 04:03:13;;;;;;;1999.90;999.90;;;;;;;1.21;58.90;99624.94;4902953;28;98238;-73
2022/04/05 04:05:41;;;;;;;1999.90;999.90;;;;;;;1.23;59.32;99627.66;4918600;28;98033;-72
2022/04/05 04:08:11;;;;;;;1999.90;999.90;;;;;;;1.27;58.68;99633.91;4917614;28;97836;-73
2022/04/05 04:10:40;;;;;;;1999.90;999.90;;;;;;;1.30;58.36;99649.75;4918560;28;98538;-73
2022/04/05 04:13:08;;;;;;;1999.90;999.90;;;;;;;1.35;57.74;99661.28;4936374;28;97952;-73
2022/04/05 04:15:41;;;;;;;1999.90;999.90;;;;;;;1.35;58.53;99670.06;4901879;28;97881;-73
2022/04/05 04:18:09;;;;;;;1999.90;999.90;;;;;;;1.29;59.15;99674.19;4936189;28;97722;-73
2022/04/05 04:20:42;;;;;;;1999.90;999.90;;;;;;;1.23;59.02;99681.78;4916172;28;98813;-73
2022/04/05 04:23:11;;;;;;;1999.90;999.90;;;;;;;1.17;58.75;99679.81;4936054;28;97125;-73
2022/04/05 04:25:50;;;;;;;1999.90;999.90;;;;;;;1.12;58.71;99676.97;4921514;28;100774;-73
2022/04/05 04:28:18;;;;;;;1999.90;999.90;;;;;;;1.09;58.31;99678.59;4918260;28;97752;-74
2022/04/05 04:30:45;;;;;;;1999.90;999.90;;;;;;;1.04;58.63;99682.75;4919229;28;98917;-74
2022/04/05 04:33:14;;;;;;;1999.90;999.90;;;;;;;1.01;59.19;99687.88;4918653;28;97825;-75
2022/04/05 04:35:42;;;;;;;1999.90;999.90;;;;;;;0.96;58.88;99684.13;4921543;28;97534;-74
2022/04/05 04:38:12;;;;;;;1999.90;999.90;;;;;;;0.92;58.75;99687.50;4903009;28;99690;-74
2022/04/05 04:40:40;;;;;;;1999.90;999.90;;;;;;;0.90;59.16;99683.91;4916847;28;99172;-74
2022/04/05 04:43:09;;;;;;;1999.90;999.90;;;;;;;0.87;58.78;99691.63;4921606;28;96816;-76
2022/04/05 04:45:37;;;;;;;1999.90;999.90;;;;;;;0.83;59.02;99692.34;4920314;28;97386;-73
2022/04/05 04:48:05;;;;;;;1999.90;999.90;;;;;;;0.79;58.69;99696.56;4914465;28;99251;-74
2022/04/05 04:50:33;;;;;;;1999.90;999.90;;;;;;;0.73;59.24;99690.16;4913085;28;98262;-74
2022/04/05 04:53:00;;;;;;;1999.90;999.90;;;;;;;0.71;59.02;99681.34;4921806;28;96975;-74
2022/04/05 04:55:28;;;;;;;1999.90;999.90;;;;;;;0.69;59.33;99682.97;4904213;28;96796;-73
2022/04/05 04:58:18;;;;;;;1999.90;999.90;;;;;;;0.65;58.87;99696.81;4913757;28;98182;-73
2022/04/05 05:00:45;;;;;;;1999.90;999.90;;;;;;;0.64;59.11;99701.13;4919620;28;98732;-73
2022/04/05 05:03:18;;;;;;;1999.90;999.90;;;;;;;0.64;59.39;99703.75;4916484;28;97425;-72
2022/04/05 05:05:46;;;;;;;1999.90;999.90;;;;;;;0.63;59.33;99711.53;4928566;28;97917;-72
2022/04/05 05:08:14;;;;;;;1999.90;999.90;;;;;;;0.65;58.93;99712.50;4910346;28;97675;-71
2022/04/05 05:10:42;;;;;;;1999.90;999.90;;;;;;;0.65;59.13;99729.06;4914697;28;100681;-72
2022/04/05 05:13:10;;;;;;;1999.90;999.90;;;;;;;0.67;59.07;99727.44;4895260;28;99165;-72
2022/04/05 05:15:42;;;;;;;1999.90;999.90;;;;;;;0.67;59.22;99724.81;4911983;28;96992;-71
2022/04/05 05:18:09;;;;;;;1999.90;999.90;;;;;;;0.69;59.18;99735.34;4905602;28;99729;-72
2022/04/05 05:20:37;;;;;;;1999.90;999.90;;;;;;;0.68;58.88;99741.41;4908752;28;100689;-72
2022/04/05 05:23:05;;;;;;;1999.90;999.90;;;;;;;0.74;58.87;99754.78;4914208;28;97569;-72
2022/04/05 05:25:33;;;;;;;1999.90;999.90;;;;;;;0.73;58.81;99760.81;4914907;28;97168;-72
2022/04/05 05:28:01;;;;;;;1999.90;999.90;;;;;;;0.73;58.48;99766.06;4910431;28;100543;-72
2022/04/05 05:30:29;;;;;;;1999.90;999.90;;;;;;;0.74;58.74;99767.88;4914363;28;97910;-72
2022/04/05 05:32:58;;;;;;;1999.90;999.90;;;;;;;0.75;58.58;99773.16;4910118;28;98862;-72
2022/04/05 05:35:26;;;;;;;1999.90;999.90;;;;;;;0.73;58.51;99780.06;4913872;28;98747;-72
2022/04/05 05:37:54;;;;;;;1999.90;999.90;;;;;;;0.69;58.77;99783.38;4915190;28;100097;-72
2022/04/05 05:40:21;;;;;;;1999.90;999.90;;;;;;;0.67;58.54;99784.09;4916652;28;99760;-72
2022/04/05 05:42:52;;;;;;;1999.90;999.90;;;;;;;0.67;58.51;99791.97;4918343;28;96965;-72
2022/04/05 05:45:21;;;;;;;1999.90;999.90;;;;;;;0.63;58.73;99782.22;4915290;28;98559;-72
2022/04/05 05:47:49;;;;;;;1999.90;999.90;;;;;;;0.66;58.44;99798.94;4920452;28;99080;-72
2022/04/05 05:50:19;;;;;;;1999.90;999.90;;;;;;;0.69;57.58;99803.41;4896079;28;99058;-72
2022/04/05 05:52:47;;;;;;;1999.90;999.90;;;;;;;0.64;57.87;99800.59;4921601;28;97071;-72
2022/04/05 05:55:17;;;;;;;1999.90;999.90;;;;;;;0.64;58.30;99803.22;4915469;28;97389;-72
2022/04/05 05:57:44;;;;;;;1999.90;999.90;;;;;;;0.64;58.01;99812.78;4917104;28;97044;-73
2022/04/05 06:00:17;;;;;;;1999.90;999.90;;;;;;;0.63;58.22;99818.84;4914190;28;97684;-72
2022/04/05 06:02:45;;;;;;;1999.90;999.90;;;;;;;0.60;58.38;99824.84;4887306;28;97778;-72
2022/04/05 06:05:13;;;;;;;1999.90;999.90;;;;;;;0.58;58.02;99834.34;4916379;28;99422;-72
2022/04/05 06:07:43;;;;;;;1999.90;999.90;;;;;;;0.56;58.11;99830.75;4912873;28;98138;-72
2022/04/05 06:10:13;;;;;;;1999.90;999.90;;;;;;;0.58;58.22;99836.03;4907406;28;97504;-73
2022/04/05 06:12:42;;;;;;;1999.90;999.90;;;;;;;0.61;58.34;99847.56;4908652;28;98765;-72
2022/04/05 06:15:12;;;;;;;1999.90;999.90;;;;;;;0.65;58.17;99849.50;4913835;28;98153;-72
2022/04/05 06:17:41;;;;;;;1999.90;999.90;;;;;;;0.70;58.01;99857.56;4908191;28;98485;-71
2022/04/05 06:20:10;;;;;;;1999.90;999.90;;;;;;;0.71;57.49;99849.78;4908988;28;98231;-72
2022/04/05 06:22:44;;;;;;;1999.90;999.90;;;;;;;0.71;57.64;99867.19;4912188;28;97274;-72
2022/04/05 06:25:13;;;;;;;1999.90;999.90;;;;;;;0.69;57.63;99866.22;4909795;28;98603;-72
2022/04/05 06:27:41;;;;;;;1999.90;999.90;;;;;;;0.68;57.54;99869.69;4917891;28;97979;-72
2022/04/05 06:30:10;;;;;;;1999.90;999.90;;;;;;;0.68;57.83;99865.34;4927408;28;98861;-72
2022/04/05 06:32:38;;;;;;;1999.90;999.90;;;;;;;0.71;57.23;99875.06;4916882;28;97553;-72
2022/04/05 06:35:07;;;;;;;1999.90;999.90;;;;;;;0.72;57.27;99882.09;4893066;28;99442;-71
2022/04/05 06:37:36;;;;;;;1999.90;999.90;;;;;;;0.71;57.54;99882.91;4905917;28;98649;-72
2022/04/05 06:40:07;;;;;;;1999.90;999.90;;;;;;;0.70;57.12;99888.97;4927335;28;97514;-72
2022/04/05 06:42:41;;;;;;;1999.90;999.90;;;;;;;0.73;57.46;99896.97;4910964;28;98329;-72
2022/04/05 06:45:11;;;;;;;1999.90;999.90;;;;;;;0.77;57.60;99896.28;4896354;28;97511;-73
2022/04/05 06:47:39;;;;;;;1999.90;999.90;;;;;;;0.79;57.41;99892.91;4915966;28;97909;-73
2022/04/05 06:50:08;;;;;;;1999.90;999.90;;;;;;;0.83;56.89;99899.19;4912230;28;97658;-76
2022/04/05 06:52:38;;;;;;;1999.90;999.90;;;;;;;0.83;57.14;99896.56;4916757;28;97198;-76
2022/04/05 06:55:08;;;;;;;1999.90;999.90;;;;;;;0.83;56.93;99893.97;4914641;28;98508;-72
2022/04/05 06:57:36;;;;;;;1999.90;999.90;;;;;;;0.86;56.78;99895.00;4914865;28;100819;-71
2022/04/05 07:00:06;;;;;;;1999.90;999.90;;;;;;;0.88;56.65;99901.19;4910497;28;97658;-72
2022/04/05 07:02:34;;;;;;;1999.90;999.90;;;;;;;0.90;57.08;99909.13;4912803;28;98200;-73
2022/04/05 07:05:02;;;;;;;1999.90;999.90;;;;;;;0.93;56.42;99914.47;4916358;28;96860;-72
2022/04/05 07:07:30;;;;;;;1999.90;999.90;;;;;;;0.93;56.53;99912.78;4915587;28;97602;-72
2022/04/05 07:09:58;;;;;;;1999.90;999.90;;;;;;;0.97;56.83;99919.03;4913566;28;99129;-72
2022/04/05 07:12:27;;;;;;;1999.90;999.90;;;;;;;1.03;56.31;99922.81;4909048;28;98965;-72
2022/04/05 07:14:55;;;;;;;1999.90;999.90;;;;;;;1.06;56.73;99914.22;4911412;28;97455;-71
2022/04/05 07:17:23;;;;;;;1999.90;999.90;;;;;;;1.10;55.97;99918.78;4913022;28;98099;-72
2022/04/05 07:19:50;;;;;;;1999.90;999.90;;;;;;;1.11;56.29;99910.97;4917687;28;100816;-73
2022/04/05 07:22:19;;;;;;;1999.90;999.90;;;;;;;1.15;56.25;99912.91;4932403;28;97009;-73
2022/04/05 07:24:47;;;;;;;1999.90;999.90;;;;;;;1.18;55.75;99913.03;4930213;28;97946;-72
2022/04/05 07:27:15;;;;;;;1999.90;999.90;;;;;;;1.20;55.87;99920.94;4916212;28;98447;-73
2022/04/05 07:29:44;;;;;;;1999.90;999.90;;;;;;;1.19;55.43;99924.41;4919832;28;98148;-72
2022/04/05 07:32:12;;;;;;;1999.90;999.90;;;;;;;1.22;55.59;99921.91;4919218;28;97066;-72
2022/04/05 07:34:39;;;;;;;1999.90;999.90;;;;;;;1.19;55.71;99933.19;4909863;28;98383;-72
2022/04/05 07:37:09;;;;;;;1999.90;999.90;;;;;;;1.22;55.78;99927.16;4889379;28;99318;-71
2022/04/05 07:39:37;;;;;;;1999.90;999.90;;;;;;;1.27;55.69;99938.72;4909682;28;99599;-71
2022/04/05 07:42:05;;;;;;;1999.90;999.90;;;;;;;1.29;55.28;99931.84;4910646;28;96888;-72
2022/04/05 07:44:33;;;;;;;1999.90;999.90;;;;;;;1.31;55.47;99931.91;4919518;28;96792;-71
2022/04/05 07:47:02;;;;;;;1999.90;999.90;;;;;;;1.34;54.87;99929.44;4917730;28;98667;-71
2022/04/05 07:49:30;;;;;;;1999.90;999.90;;;;;;;1.36;54.65;99933.91;4917980;28;100792;-72
2022/04/05 07:51:58;;;;;;;1999.90;999.90;;;;;;;1.38;54.72;99939.22;4936413;28;98402;-72
2022/04/05 07:54:26;;;;;;;1999.90;999.90;;;;;;;1.44;54.69;99943.00;4921014;28;97498;-72
2022/04/05 07:56:53;;;;;;;1999.90;999.90;;;;;;;1.43;54.75;99938.59;4913647;28;99328;-73
2022/04/05 07:59:21;;;;;;;1999.90;999.90;;;;;;;1.44;55.09;99934.25;4918314;28;98550;-72
2022/04/05 08:01:49;;;;;;;1999.90;999.90;;;;;;;1.47;54.12;99937.88;4917241;28;97973;-73
2022/04/05 08:04:30;;;;;;;1999.90;999.90;;;;;;;1.51;54.88;99931.06;4919869;28;97025;-72
2022/04/05 08:06:58;;;;;;;1999.90;999.90;;;;;;;1.57;54.76;99933.94;4918980;28;97620;-72
2022/04/05 08:09:25;;;;;;;1999.90;999.90;;;;;;;1.62;54.19;99941.19;4920424;28;98671;-73
2022/04/05 08:11:53;;;;;;;1999.90;999.90;;;;;;;1.68;54.38;99937.94;4922303;28;97945;-72
2022/04/05 08:14:23;;;;;;;1999.90;999.90;;;;;;;1.68;54.49;99932.69;4919104;28;97125;-72
2022/04/05 08:16:51;;;;;;;1999.90;999.90;;;;;;;1.67;54.32;99937.03;4918549;28;99996;-73
2022/04/05 08:19:19;;;;;;;1999.90;999.90;;;;;;;1.69;53.63;99948.47;4914297;28;98058;-72
2022/04/05 08:21:51;;;;;;;1999.90;999.90;;;;;;;1.67;53.66;99944.03;4914832;28;97613;-72
2022/04/05 08:24:20;;;;;;;1999.90;999.90;;;;;;;1.71;54.02;99949.44;4920045;28;97865;-73
2022/04/05 08:26:48;;;;;;;1999.90;999.90;;;;;;;1.73;54.08;99939.91;4918804;28;98775;-72
2022/04/05 08:29:16;;;;;;;1999.90;999.90;;;;;;;1.72;53.95;99943.38;4916908;28;101236;-72
2022/04/05 08:31:43;;;;;;;1999.90;999.90;;;;;;;1.75;53.92;99942.59;4898805;28;100234;-72
2022/04/05 08:34:12;;;;;;;1999.90;999.90;;;;;;;1.76;54.01;99942.66;4932600;28;97167;-73
2022/04/05 08:36:40;;;;;;;1999.90;999.90;;;;;;;1.82;53.71;99948.19;4917690;28;99130;-72
2022/04/05 08:39:09;;;;;;;1999.90;999.90;;;;;;;1.89;53.97;99938.84;4916624;28;100277;-72
2022/04/05 08:41:38;;;;;;;1999.90;999.90;;;;;;;1.97;53.38;99942.69;4919970;28;98689;-72
2022/04/05 08:44:06;;;;;;;1999.90;999.90;;;;;;;2.03;53.72;99942.94;4933832;28;97644;-73
2022/04/05 08:46:35;;;;;;;1999.90;999.90;;;;;;;2.04;53.18;99936.84;4919305;28;98749;-73
2022/04/05 08:49:03;;;;;;;1999.90;999.90;;;;;;;2.04;53.41;99939.47;4915698;28;98413;-74
2022/04/05 08:51:31;;;;;;;1999.90;999.90;;;;;;;2.07;53.48;99935.25;4918256;28;97732;-74
2022/04/05 08:53:59;;;;;;;1999.90;999.90;;;;;;;2.14;53.46;99939.06;4918136;28;97772;-72
2022/04/05 08:56:30;;;;;;;1999.90;999.90;;;;;;;2.22;53.45;99944.63;4916927;28;98844;-72
2022/04/05 08:58:58;;;;;;;1999.90;999.90;;;;;;;2.31;53.17;99943.25;4917652;28;97326;-73
2022/04/05 09:01:29;;;;;;;1999.90;999.90;;;;;;;2.37;52.67;99948.75;4921137;28;97539;-73
2022/04/05 09:03:57;;;;;;;1999.90;999.90;;;;;;;2.43;52.90;99951.66;4918859;28;98862;-74
2022/04/05 09:06:27;;;;;;;1999.90;999.90;;;;;;;2.44;52.41;99948.16;4920329;28;100852;-74
2022/04/05 09:08:58;;;;;;;1999.90;999.90;;;;;;;2.44;52.25;99950.81;4918119;28;100739;-74
2022/04/05 09:11:29;;;;;;;1999.90;999.90;;;;;;;2.44;52.00;99948.16;4919572;28;97559;-74
2022/04/05 09:13:58;;;;;;;1999.90;999.90;;;;;;;2.46;52.50;99956.09;4919536;28;98325;-74
2022/04/05 09:16:31;;;;;;;1999.90;999.90;;;;;;;2.51;52.38;99944.09;4920367;28;100594;-74
2022/04/05 09:19:00;;;;;;;1999.90;999.90;;;;;;;2.56;52.40;99951.31;4919820;28;97563;-74
2022/04/05 09:21:51;;;;;;;1999.90;999.90;;;;;;;2.56;51.61;99943.44;4916770;28;100150;-74
2022/04/05 09:24:20;;;;;;;1999.90;999.90;;;;;;;2.62;52.36;99948.91;4920755;28;96736;-73
2022/04/05 09:26:49;;;;;;;1999.90;999.90;;;;;;;2.66;51.70;99953.44;4919731;28;98490;-74
2022/04/05 09:29:18;;;;;;;1999.90;999.90;;;;;;;2.70;51.60;99951.84;4918958;28;98451;-74
2022/04/05 09:31:47;;;;;;;1999.90;999.90;;;;;;;2.73;51.87;99946.72;4916530;28;97416;-73
2022/04/05 09:34:19;;;;;;;1999.90;999.90;;;;;;;2.78;51.83;99950.41;4918042;28;98394;-74
2022/04/05 09:36:49;;;;;;;1999.90;999.90;;;;;;;2.79;52.13;99942.59;4917100;28;98669;-74
2022/04/05 09:39:19;;;;;;;1999.90;999.90;;;;;;;2.80;52.07;99938.25;4917977;28;99196;-73
2022/04/05 09:41:49;;;;;;;1999.90;999.90;;;;;;;2.81;51.97;99947.91;4919521;28;97061;-74
2022/04/05 09:44:25;;;;;;;1999.90;999.90;;;;;;;2.85;51.50;99947.19;4917809;28;97264;-73
2022/04/05 09:47:03;;;;;;;1999.90;999.90;;;;;;;2.89;51.58;99941.22;4915873;28;100642;-73
2022/04/05 09:49:32;;;;;;;1999.90;999.90;;;;;;;2.95;51.58;99951.94;4919439;28;97951;-73
2022/04/05 09:52:00;;;;;;;1999.90;999.90;;;;;;;2.95;51.18;99946.69;4918312;28;99695;-74
2022/04/05 09:54:29;;;;;;;1999.90;999.90;;;;;;;2.99;51.92;99945.97;4918212;28;97567;-74
2022/04/05 09:57:03;;;;;;;1999.90;999.90;;;;;;;3.02;51.27;99948.72;4919169;28;97752;-74
2022/04/05 09:59:39;;;;;;;1999.90;999.90;;;;;;;3.07;51.30;99949.78;4918749;28;97603;-74
2022/04/05 10:02:12;;;;;;;1999.90;999.90;;;;;;;3.12;51.53;99943.88;4918885;28;97653;-74
2022/04/05 10:05:01;;;;;;;1999.90;999.90;;;;;;;3.15;51.26;99945.69;4918504;28;97683;-73
2022/04/05 10:07:30;;;;;;;1999.90;999.90;;;;;;;3.20;51.11;99949.41;4914270;28;98294;-73
2022/04/05 10:09:59;;;;;;;1999.90;999.90;;;;;;;3.18;51.01;99946.69;4917865;28;98847;-73
2022/04/05 10:12:28;;;;;;;1999.90;999.90;;;;;;;3.17;51.39;99950.19;4917150;28;100634;-73
2022/04/05 10:14:56;;;;;;;1999.90;999.90;;;;;;;3.15;51.06;99946.59;4908028;28;98084;-72
2022/04/05 10:17:26;;;;;;;1999.90;999.90;;;;;;;3.17;51.50;99949.28;4893371;28;100325;-73
2022/04/05 10:19:56;;;;;;;1999.90;999.90;;;;;;;3.16;51.53;99951.03;4918023;28;99226;-73
2022/04/05 10:22:24;;;;;;;1999.90;999.90;;;;;;;3.16;51.39;99956.28;4917017;28;96941;-74
2022/04/05 10:24:53;;;;;;;1999.90;999.90;;;;;;;3.18;51.36;99953.72;4904085;28;97632;-73
2022/04/05 10:27:22;;;;;;;1999.90;999.90;;;;;;;3.18;50.88;99951.97;4920538;28;97582;-74
2022/04/05 10:29:57;;;;;;;1999.90;999.90;;;;;;;3.13;51.01;99944.78;4917008;28;99831;-72
2022/04/05 10:32:30;;;;;;;1999.90;999.90;;;;;;;3.10;51.04;99940.28;4913007;28;97560;-73
2022/04/05 10:35:04;;;;;;;1999.90;999.90;;;;;;;3.10;51.59;99947.25;4905260;28;98501;-73
2022/04/05 10:37:34;;;;;;;1999.90;999.90;;;;;;;3.09;51.43;99942.88;4920118;28;97532;-72
2022/04/05 10:40:14;;;;;;;1999.90;999.90;;;;;;;3.07;51.27;99936.66;4912522;28;98843;-73
2022/04/05 10:42:44;;;;;;;1999.90;999.90;;;;;;;3.09;51.01;99938.47;4918221;28;97671;-73
2022/04/05 10:45:15;;;;;;;1999.90;999.90;;;;;;;3.13;51.20;99939.53;4911609;28;97738;-73
2022/04/05 10:48:01;;;;;;;1999.90;999.90;;;;;;;3.11;51.39;99934.19;4930780;28;100446;-73
2022/04/05 10:51:30;;;;;;;1999.90;999.90;;;;;;;3.12;51.37;99935.09;4921907;28;100403;-72
2022/04/05 10:54:25;;;;;;;1999.90;999.90;;;;;;;3.13;51.28;99936.91;4918894;28;98583;-73
2022/04/05 10:57:26;;;;;;;1999.90;999.90;;;;;;;3.11;51.45;99946.44;4916872;28;96976;-73
2022/04/05 10:59:56;;;;;;;1999.90;999.90;;;;;;;3.12;51.17;99949.13;4920975;28;98950;-73
2022/04/05 11:02:35;;;;;;;1999.90;999.90;;;;;;;3.12;51.35;99942.97;4917446;28;100182;-73
2022/04/05 11:05:37;;;;;;;1999.90;999.90;;;;;;;3.13;51.22;99934.25;4909753;28;98290;-72
2022/04/05 11:08:17;;;;;;;1999.90;999.90;;;;;;;3.15;51.10;99941.34;4919824;28;97978;-73
2022/04/05 11:10:52;;;;;;;1999.90;999.90;;;;;;;3.16;51.55;99939.63;4917129;28;98956;-73
2022/04/05 11:13:36;;;;;;;1999.90;999.90;;;;;;;3.20;51.21;99938.91;4913279;28;97615;-73